createdAt,value
2023-10-06T00:01:58.218Z,101571.75
2023-10-06T00:04:59.986Z,101578.53
2023-10-06T00:08:01.609Z,101577.78
2023-10-06T00:11:03.157Z,101578.53
2023-10-06T00:14:04.749Z,101575.59
2023-10-06T00:17:06.356Z,101579.19
2023-10-06T00:20:07.881Z,101577.59
2023-10-06T00:23:09.507Z,101579.94
2023-10-06T00:26:11.014Z,101580.91
2023-10-06T00:29:12.615Z,101572.97
2023-10-06T00:32:14.139Z,101574.88
2023-10-06T00:35:15.746Z,101569.56
2023-10-06T00:38:17.289Z,101568.84
2023-10-06T00:41:18.824Z,101563.19
2023-10-06T00:44:20.346Z,101564.97
2023-10-06T00:47:21.875Z,101566.50
2023-10-06T00:50:23.471Z,101565.84
2023-10-06T00:53:24.984Z,101561.00
2023-10-06T00:56:26.853Z,101564.84
2023-10-06T00:59:28.592Z,101571.38
2023-10-06T01:02:30.303Z,101564.41
2023-10-06T01:05:31.995Z,101557.25
2023-10-06T01:08:33.609Z,101554.63
2023-10-06T01:11:35.120Z,101552.31
2023-10-06T01:14:36.617Z,101553.91
2023-10-06T01:17:38.116Z,101547.38
2023-10-06T01:20:39.670Z,101549.53
2023-10-06T01:23:41.140Z,101539.25
2023-10-06T01:26:42.637Z,101545.69
2023-10-06T01:29:44.256Z,101546.38
2023-10-06T01:32:45.863Z,101546.28
2023-10-06T01:35:47.435Z,101549.81
2023-10-06T01:38:48.940Z,101555.06
2023-10-06T01:41:50.425Z,101551.72
2023-10-06T01:44:51.955Z,101553.19
2023-10-06T01:47:53.525Z,101542.63
2023-10-06T01:50:55.068Z,101539.03
2023-10-06T01:53:56.587Z,101535.81
2023-10-06T01:56:58.096Z,101544.50
2023-10-06T01:59:59.726Z,101545.66
2023-10-06T02:03:01.310Z,101547.59
2023-10-06T02:06:02.945Z,101543.34
2023-10-06T02:09:04.442Z,101540.69
2023-10-06T02:12:05.957Z,101542.91
2023-10-06T02:15:07.399Z,101536.63
2023-10-06T02:18:08.964Z,101531.94
2023-10-06T02:21:10.692Z,101541.34
2023-10-06T02:24:12.319Z,101533.13
2023-10-06T02:27:13.795Z,101531.34
2023-10-06T02:30:15.301Z,101532.06
2023-10-06T02:33:16.806Z,101518.72
2023-10-06T02:36:18.365Z,101537.69
2023-10-06T02:39:19.833Z,101534.44
2023-10-06T02:42:21.344Z,101523.00
2023-10-06T02:45:22.849Z,101516.00
2023-10-06T02:48:24.427Z,101521.44
2023-10-06T02:51:26.154Z,101530.22
2023-10-06T02:54:27.663Z,101521.78
2023-10-06T02:57:29.199Z,101518.84
2023-10-06T03:00:30.750Z,101517.06
2023-10-06T03:03:32.378Z,101526.63
2023-10-06T03:06:33.911Z,101519.00
2023-10-06T03:09:35.393Z,101520.44
2023-10-06T03:12:36.994Z,101516.91
2023-10-06T03:15:39.761Z,101514.78
2023-10-06T03:18:41.328Z,101519.88
2023-10-06T03:21:42.833Z,101524.41
2023-10-06T03:24:44.384Z,101527.91
2023-10-06T03:27:45.988Z,101528.41
2023-10-06T03:30:47.512Z,101525.47
2023-10-06T03:33:49.097Z,101523.69
2023-10-06T03:36:50.607Z,101516.47
2023-10-06T03:39:52.100Z,101529.84
2023-10-06T03:42:53.640Z,101525.88
2023-10-06T03:45:55.150Z,101521.94
2023-10-06T03:48:56.654Z,101525.97
2023-10-06T03:51:58.222Z,101533.94
2023-10-06T03:54:59.734Z,101522.38
2023-10-06T03:58:01.297Z,101529.47
2023-10-06T04:01:02.901Z,101530.91
2023-10-06T04:04:04.475Z,101536.09
2023-10-06T04:07:06.060Z,101531.97
2023-10-06T04:10:07.590Z,101537.75
2023-10-06T04:13:09.126Z,101536.19
2023-10-06T04:16:10.678Z,101537.75
2023-10-06T04:19:12.232Z,101532.31
2023-10-06T04:22:13.746Z,101536.94
2023-10-06T04:25:15.346Z,101527.06
2023-10-06T04:28:16.859Z,101536.00
2023-10-06T04:31:18.419Z,101532.97
2023-10-06T04:34:19.946Z,101535.38
2023-10-06T04:37:21.469Z,101532.47
2023-10-06T04:40:22.983Z,101521.13
2023-10-06T04:43:24.494Z,101523.78
2023-10-06T04:46:26.062Z,101521.53
2023-10-06T04:49:27.602Z,101525.22
2023-10-06T04:52:29.141Z,101516.31
2023-10-06T04:55:30.640Z,101514.25
2023-10-06T04:58:32.161Z,101519.19
2023-10-06T05:01:33.660Z,101520.78
2023-10-06T05:04:35.206Z,101528.00
2023-10-06T05:07:36.694Z,101531.59
2023-10-06T05:10:38.210Z,101539.22
2023-10-06T05:13:39.767Z,101519.06
2023-10-06T05:16:41.460Z,101526.53
2023-10-06T05:19:43.117Z,101518.09
2023-10-06T05:22:44.693Z,101525.81
2023-10-06T05:25:46.318Z,101521.41
2023-10-06T05:28:47.992Z,101525.56
2023-10-06T05:31:49.546Z,101524.63
2023-10-06T05:34:51.165Z,101526.19
2023-10-06T05:37:52.758Z,101519.31
2023-10-06T05:40:54.385Z,101530.88
2023-10-06T05:43:56.001Z,101523.41
2023-10-06T05:46:57.555Z,101523.75
2023-10-06T05:49:59.072Z,101521.66
2023-10-06T05:53:00.677Z,101526.88
2023-10-06T05:56:02.272Z,101535.22
2023-10-06T05:59:03.852Z,101530.34
2023-10-06T06:02:05.416Z,101542.31
2023-10-06T06:05:06.884Z,101548.09
2023-10-06T06:08:08.472Z,101546.25
2023-10-06T06:11:10.117Z,101539.75
2023-10-06T06:14:17.887Z,101536.91
2023-10-06T06:17:19.841Z,101541.28
2023-10-06T06:20:21.368Z,101542.44
2023-10-06T06:23:22.890Z,101529.81
2023-10-06T06:26:24.390Z,101522.63
2023-10-06T06:29:25.924Z,101527.97
2023-10-06T06:32:27.524Z,101537.28
2023-10-06T06:35:29.073Z,101529.94
2023-10-06T06:38:30.582Z,101533.22
2023-10-06T06:41:32.107Z,101538.69
2023-10-06T06:44:33.555Z,101539.94
2023-10-06T06:47:35.066Z,101545.38
2023-10-06T06:50:36.703Z,101543.69
2023-10-06T06:53:38.233Z,101552.38
2023-10-06T06:56:39.770Z,101553.47
2023-10-06T06:59:41.358Z,101548.75
2023-10-06T07:02:43.084Z,101556.38
2023-10-06T07:05:44.635Z,101553.38
2023-10-06T07:08:46.220Z,101551.69
2023-10-06T07:11:47.705Z,101559.88
2023-10-06T07:14:49.210Z,101556.63
2023-10-06T07:17:50.766Z,101555.88
2023-10-06T07:20:52.386Z,101551.47
2023-10-06T07:23:53.928Z,101546.13
2023-10-06T07:26:55.448Z,101556.91
2023-10-06T07:29:57.045Z,101550.38
2023-10-06T07:32:58.712Z,101551.22
2023-10-06T07:36:00.264Z,101560.16
2023-10-06T07:39:01.792Z,101558.56
2023-10-06T07:42:03.303Z,101552.47
2023-10-06T07:45:04.854Z,101558.88
2023-10-06T07:48:06.467Z,101558.47
2023-10-06T07:51:08.004Z,101558.34
2023-10-06T07:54:09.918Z,101554.53
2023-10-06T07:57:11.559Z,101563.31
2023-10-06T08:00:13.079Z,101571.22
2023-10-06T08:03:14.600Z,101563.38
2023-10-06T08:06:16.192Z,101570.59
2023-10-06T08:09:17.793Z,101567.81
2023-10-06T08:12:19.259Z,101567.47
2023-10-06T08:15:20.729Z,101569.88
2023-10-06T08:18:22.259Z,101561.50
2023-10-06T08:21:23.749Z,101560.25
2023-10-06T08:24:25.298Z,101562.91
2023-10-06T08:27:26.785Z,101556.34
2023-10-06T08:30:29.250Z,101566.03
2023-10-06T08:33:30.823Z,101572.13
2023-10-06T08:36:32.369Z,101562.88
2023-10-06T08:39:33.893Z,101559.09
2023-10-06T08:42:35.555Z,101551.44
2023-10-06T08:45:37.136Z,101547.88
2023-10-06T08:48:38.787Z,101537.47
2023-10-06T08:51:40.306Z,101537.13
2023-10-06T08:54:41.848Z,101532.34
2023-10-06T08:57:43.372Z,101530.94
2023-10-06T09:00:45.054Z,101528.75
2023-10-06T09:03:46.974Z,101528.09
2023-10-06T09:06:48.481Z,101525.44
2023-10-06T09:09:50.025Z,101517.25
2023-10-06T09:12:51.538Z,101517.28
2023-10-06T09:15:53.043Z,101500.22
2023-10-06T09:18:54.620Z,101498.28
2023-10-06T09:21:56.253Z,101496.09
2023-10-06T09:24:57.794Z,101493.75
2023-10-06T09:27:59.348Z,101491.34
2023-10-06T09:31:00.887Z,101487.03
2023-10-06T09:34:02.397Z,101479.59
2023-10-06T09:37:04.012Z,101483.91
2023-10-06T09:40:05.556Z,101474.25
2023-10-06T09:43:07.076Z,101478.44
2023-10-06T09:46:08.647Z,101466.38
2023-10-06T09:49:10.250Z,101474.44
2023-10-06T09:52:11.787Z,101473.88
2023-10-06T09:55:13.291Z,101468.16
2023-10-06T09:58:14.835Z,101463.50
2023-10-06T10:01:16.487Z,101462.13
2023-10-06T10:04:18.123Z,101461.84
2023-10-06T10:07:19.608Z,101459.06
2023-10-06T10:10:21.166Z,101450.47
2023-10-06T10:13:22.707Z,101459.75
2023-10-06T10:16:24.255Z,101455.31
2023-10-06T10:19:25.809Z,101459.03
2023-10-06T10:22:27.338Z,101462.41
2023-10-06T10:25:29.056Z,101465.06
2023-10-06T10:28:30.729Z,101454.19
2023-10-06T10:34:35.230Z,101445.09
2023-10-06T10:37:36.980Z,101438.69
2023-10-06T10:40:38.525Z,101444.19
2023-10-06T10:43:40.127Z,101442.25
2023-10-06T10:46:45.276Z,101436.38
2023-10-06T10:49:46.809Z,101437.47
2023-10-06T10:52:48.361Z,101445.75
2023-10-06T10:55:49.986Z,101432.41
2023-10-06T10:58:51.613Z,101421.47
2023-10-06T11:01:53.205Z,101431.75
2023-10-06T11:04:54.832Z,101419.00
2023-10-06T11:07:56.476Z,101421.78
2023-10-06T11:10:58.236Z,101410.81
2023-10-06T11:14:02.784Z,101409.75
2023-10-06T11:17:08.380Z,101401.63
2023-10-06T11:20:10.141Z,101402.59
2023-10-06T11:23:11.683Z,101403.72
2023-10-06T11:26:13.348Z,101391.78
2023-10-06T11:29:14.916Z,101389.81
2023-10-06T11:32:16.575Z,101389.66
2023-10-06T11:35:18.257Z,101392.59
2023-10-06T11:38:19.854Z,101380.69
2023-10-06T11:41:21.444Z,101371.03
2023-10-06T11:44:23.121Z,101373.69
2023-10-06T11:47:24.883Z,101356.16
2023-10-06T11:50:26.446Z,101354.78
2023-10-06T11:53:28.090Z,101361.50
2023-10-06T11:56:29.672Z,101361.91
2023-10-06T11:59:31.228Z,101353.38
2023-10-06T12:02:32.859Z,101348.34
2023-10-06T12:05:34.511Z,101337.53
2023-10-06T12:08:36.107Z,101342.84
2023-10-06T12:11:37.680Z,101333.88
2023-10-06T12:14:39.300Z,101331.78
2023-10-06T12:17:40.914Z,101331.94
2023-10-06T12:20:42.619Z,101327.56
2023-10-06T12:23:44.237Z,101324.63
2023-10-06T12:26:45.748Z,101319.88
2023-10-06T12:29:50.170Z,101305.72
2023-10-06T12:32:51.889Z,101301.50
2023-10-06T12:35:53.462Z,101294.50
2023-10-06T12:38:55.041Z,101284.00
2023-10-06T12:41:56.551Z,101287.34
2023-10-06T12:44:58.078Z,101284.97
2023-10-06T12:47:59.605Z,101286.91
2023-10-06T12:51:01.215Z,101291.28
2023-10-06T12:54:02.718Z,101286.38
2023-10-06T12:57:04.294Z,101279.09
2023-10-06T13:00:05.874Z,101284.41
2023-10-06T13:03:07.480Z,101287.78
2023-10-06T13:06:09.122Z,101286.66
2023-10-06T13:09:10.686Z,101291.28
2023-10-06T13:12:12.290Z,101284.81
2023-10-06T13:15:13.864Z,101283.28
2023-10-06T13:18:15.452Z,101287.34
2023-10-06T13:21:16.992Z,101286.22
2023-10-06T13:24:18.580Z,101288.31
2023-10-06T13:27:20.079Z,101293.25
2023-10-06T13:30:21.644Z,101290.16
2023-10-06T13:33:23.345Z,101287.22
2023-10-06T13:36:25.044Z,101280.47
2023-10-06T13:39:26.732Z,101276.81
2023-10-06T13:42:30.133Z,101275.56
2023-10-06T13:45:31.665Z,101266.03
2023-10-06T13:48:33.302Z,101270.09
2023-10-06T13:51:34.879Z,101254.81
2023-10-06T13:54:36.366Z,101259.16
2023-10-06T13:57:37.905Z,101254.53
2023-10-06T14:00:39.416Z,101258.03
2023-10-06T14:03:41.068Z,101257.06
2023-10-06T14:06:42.690Z,101259.19
2023-10-06T14:09:44.272Z,101267.41
2023-10-06T14:12:45.808Z,101260.56
2023-10-06T14:15:47.320Z,101267.56
2023-10-06T14:18:48.842Z,101264.66
2023-10-06T14:21:50.387Z,101262.69
2023-10-06T14:24:51.904Z,101267.31
2023-10-06T14:27:53.365Z,101274.88
2023-10-06T14:30:54.933Z,101277.41
2023-10-06T14:33:56.492Z,101275.03
2023-10-06T14:36:57.967Z,101281.19
2023-10-06T14:39:59.546Z,101275.53
2023-10-06T14:43:01.038Z,101286.66
2023-10-06T14:46:02.795Z,101287.22
2023-10-06T14:49:04.353Z,101282.72
2023-10-06T14:52:05.860Z,101275.56
2023-10-06T14:55:07.356Z,101273.47
2023-10-06T14:58:08.845Z,101272.34
2023-10-06T15:01:14.675Z,101263.63
2023-10-06T15:04:16.345Z,101253.53
2023-10-06T15:07:20.518Z,101250.88
2023-10-06T15:10:22.048Z,101257.91
2023-10-06T15:13:23.630Z,101248.91
2023-10-06T15:16:25.382Z,101248.91
2023-10-06T15:19:31.156Z,101250.72
2023-10-06T15:22:32.832Z,101241.06
2023-10-06T15:25:36.143Z,101244.56
2023-10-06T15:28:39.536Z,101234.59
2023-10-06T15:31:41.388Z,101239.09
2023-10-06T15:34:42.896Z,101236.44
2023-10-06T15:37:44.416Z,101240.75
2023-10-06T15:40:45.994Z,101245.97
2023-10-06T15:43:47.545Z,101240.63
2023-10-06T15:46:49.041Z,101225.59
2023-10-06T15:49:54.480Z,101235.16
2023-10-06T15:53:04.364Z,101226.31
2023-10-06T15:56:05.974Z,101235.16
2023-10-06T15:59:07.834Z,101240.34
2023-10-06T16:02:09.545Z,101237.69
2023-10-06T16:05:11.164Z,101239.34
2023-10-06T16:08:12.730Z,101242.72
2023-10-06T16:11:14.311Z,101240.03
2023-10-06T16:14:17.824Z,101242.84
2023-10-06T16:17:19.558Z,101237.09
2023-10-06T16:20:21.269Z,101233.44
2023-10-06T16:23:22.886Z,101228.09
2023-10-06T16:26:24.434Z,101228.78
2023-10-06T16:29:26.041Z,101241.16
2023-10-06T16:32:27.667Z,101237.50
2023-10-06T16:35:29.318Z,101243.50
2023-10-06T16:38:30.887Z,101241.72
2023-10-06T16:41:32.548Z,101240.84
2023-10-06T16:44:34.181Z,101235.13
2023-10-06T16:47:35.960Z,101242.13
2023-10-06T16:50:37.658Z,101234.00
2023-10-06T16:53:39.305Z,101244.66
2023-10-06T16:56:40.936Z,101243.13
2023-10-06T16:59:42.554Z,101241.16
2023-10-06T17:02:44.221Z,101235.53
2023-10-06T17:05:45.916Z,101240.19
2023-10-06T17:08:47.452Z,101233.31
2023-10-06T17:11:49.260Z,101238.78
2023-10-06T17:14:51.746Z,101245.13
2023-10-06T17:17:53.380Z,101251.28
2023-10-06T17:20:54.960Z,101256.91
2023-10-06T17:23:56.428Z,101256.19
2023-10-06T17:26:57.990Z,101267.31
2023-10-06T17:29:59.575Z,101261.69
2023-10-06T17:33:01.215Z,101263.34
2023-10-06T17:36:02.807Z,101257.47
2023-10-06T17:39:04.386Z,101258.31
2023-10-06T17:42:09.929Z,101262.09
2023-10-06T17:45:11.413Z,101255.81
2023-10-06T17:48:13.034Z,101255.81
2023-10-06T17:51:17.088Z,101255.25
2023-10-06T17:54:18.610Z,101261.13
2023-10-06T17:57:20.115Z,101266.03
2023-10-06T18:00:21.633Z,101263.38
2023-10-06T18:03:23.216Z,101266.16
2023-10-06T18:06:24.819Z,101254.22
2023-10-06T18:09:26.353Z,101262.00
2023-10-06T18:12:27.863Z,101256.53
2023-10-06T18:15:29.357Z,101255.66
2023-10-06T18:18:30.866Z,101252.03
2023-10-06T18:21:32.362Z,101253.84
2023-10-06T18:24:33.841Z,101260.69
2023-10-06T18:27:35.354Z,101260.13
2023-10-06T18:30:36.832Z,101266.16
2023-10-06T18:33:38.332Z,101262.53
2023-10-06T18:36:39.867Z,101257.91
2023-10-06T18:39:41.353Z,101268.44
2023-10-06T18:42:42.867Z,101277.97
2023-10-06T18:45:44.431Z,101263.50
2023-10-06T18:48:46.377Z,101268.69
2023-10-06T18:51:47.906Z,101260.28
2023-10-06T18:54:49.414Z,101265.91
2023-10-06T18:57:51.047Z,101263.81
2023-10-06T19:01:01.480Z,101269.97
2023-10-06T19:04:04.841Z,101264.22
2023-10-06T19:07:06.411Z,101266.19
2023-10-06T19:10:08.482Z,101268.44
2023-10-06T19:13:10.009Z,101267.19
2023-10-06T19:16:14.415Z,101265.63
2023-10-06T19:19:22.122Z,101256.66
2023-10-06T19:22:23.802Z,101262.81
2023-10-06T19:25:25.395Z,101262.13
2023-10-06T19:28:29.506Z,101261.00
2023-10-06T19:31:31.622Z,101267.88
2023-10-06T19:34:33.304Z,101276.56
2023-10-06T19:37:38.034Z,101272.78
2023-10-06T19:40:42.658Z,101272.50
2023-10-06T19:43:44.221Z,101268.13
2023-10-06T19:46:48.385Z,101273.19
2023-10-06T19:49:49.973Z,101265.47
2023-10-06T19:52:51.580Z,101264.78
2023-10-06T19:55:53.218Z,101270.53
2023-10-06T19:58:56.752Z,101271.78
2023-10-06T20:01:58.308Z,101264.22
2023-10-06T20:04:59.912Z,101261.97
2023-10-06T20:08:01.479Z,101260.97
2023-10-06T20:11:05.511Z,101260.28
2023-10-06T20:14:09.573Z,101266.31
2023-10-06T20:17:11.172Z,101260.84
2023-10-06T20:20:12.833Z,101264.19
2023-10-06T20:23:14.345Z,101253.00
2023-10-06T20:26:15.882Z,101259.88
2023-10-06T20:29:17.458Z,101262.25
2023-10-06T20:32:18.989Z,101271.22
2023-10-06T20:35:22.776Z,101272.31
2023-10-06T20:38:24.295Z,101270.78
2023-10-06T20:41:25.826Z,101274.97
2023-10-06T20:44:27.339Z,101286.31
2023-10-06T20:47:29.102Z,101285.22
2023-10-06T20:50:30.642Z,101284.66
2023-10-06T20:53:32.160Z,101280.44
2023-10-06T20:56:33.684Z,101288.97
2023-10-06T20:59:40.509Z,101283.63
2023-10-06T21:02:43.974Z,101285.06
2023-10-06T21:05:45.568Z,101280.84
2023-10-06T21:08:47.041Z,101287.84
2023-10-06T21:11:48.562Z,101291.06
2023-10-06T21:14:52.647Z,101295.28
2023-10-06T21:17:54.226Z,101292.75
2023-10-06T21:20:55.744Z,101296.94
2023-10-06T21:23:57.288Z,101312.91
2023-10-06T21:26:58.812Z,101302.78
2023-10-06T21:30:00.378Z,101301.66
2023-10-06T21:33:01.951Z,101298.63
2023-10-06T21:36:03.437Z,101309.97
2023-10-06T21:39:04.937Z,101309.97
2023-10-06T21:42:06.415Z,101302.53
2023-10-06T21:45:07.995Z,101293.84
2023-10-06T21:48:09.515Z,101295.78
2023-10-06T21:51:11.167Z,101295.50
2023-10-06T21:54:12.828Z,101293.69
2023-10-06T21:57:14.360Z,101298.84
2023-10-06T22:00:15.867Z,101293.53
2023-10-06T22:03:17.472Z,101297.66
2023-10-06T22:06:19.038Z,101283.44
2023-10-06T22:09:20.519Z,101282.06
2023-10-06T22:12:22.010Z,101280.91
2023-10-06T22:15:23.532Z,101276.56
2023-10-06T22:18:25.062Z,101281.88
2023-10-06T22:21:26.600Z,101262.78
2023-10-06T22:24:28.168Z,101261.81
2023-10-06T22:27:29.692Z,101255.94
2023-10-06T22:30:31.272Z,101280.19
2023-10-06T22:33:32.785Z,101280.91
2023-10-06T22:36:34.407Z,101279.56
2023-10-06T22:39:36.226Z,101281.06
2023-10-06T22:42:37.748Z,101279.81
2023-10-06T22:45:39.291Z,101273.72
2023-10-06T22:48:40.787Z,101262.38
2023-10-06T22:51:42.259Z,101270.75
2023-10-06T22:54:43.724Z,101267.06
2023-10-06T22:57:45.214Z,101248.53
2023-10-06T23:00:46.742Z,101261.81
2023-10-06T23:03:48.333Z,101259.53
2023-10-06T23:06:49.897Z,101261.66
2023-10-06T23:09:51.421Z,101256.75
2023-10-06T23:12:52.927Z,101263.06
2023-10-06T23:15:56.920Z,101258.44
2023-10-06T23:18:58.534Z,101242.47
2023-10-06T23:22:00.095Z,101248.72
2023-10-06T23:25:01.572Z,101263.53
2023-10-06T23:28:03.136Z,101246.06
2023-10-06T23:31:06.095Z,101242.72
2023-10-06T23:34:07.584Z,101249.75
2023-10-06T23:37:09.105Z,101249.13
2023-10-06T23:40:10.566Z,101236.00
2023-10-06T23:43:15.219Z,101237.28
2023-10-06T23:46:17.149Z,101234.63
2023-10-06T23:49:18.875Z,101240.78
2023-10-06T23:52:20.393Z,101238.53
2023-10-06T23:55:21.835Z,101245.00
2023-10-06T23:58:23.376Z,101237.88
